createdAt,value
2023-04-25T00:00:16.898Z,99517.84
2023-04-25T00:02:44.065Z,99517.09
2023-04-25T00:05:12.118Z,99512.84
2023-04-25T00:07:39.705Z,99514.63
2023-04-25T00:10:07.537Z,99522.94
2023-04-25T00:12:34.720Z,99512.50
2023-04-25T00:15:01.746Z,99522.25
2023-04-25T00:17:29.353Z,99523.22
2023-04-25T00:19:57.115Z,99513.91
2023-04-25T00:22:24.121Z,99514.84
2023-04-25T00:24:51.605Z,99527.69
2023-04-25T00:27:18.649Z,99524.81
2023-04-25T00:29:45.943Z,99522.09
2023-04-25T00:32:12.869Z,99517.09
2023-04-25T00:34:39.768Z,99516.47
2023-04-25T00:37:07.232Z,99519.94
2023-04-25T00:39:34.232Z,99527.63
2023-04-25T00:42:03.151Z,99523.84
2023-04-25T00:44:31.192Z,99522.19
2023-04-25T00:46:58.688Z,99520.69
2023-04-25T00:49:25.717Z,99517.47
2023-04-25T00:51:52.673Z,99521.53
2023-04-25T00:54:19.734Z,99526.03
2023-04-25T00:56:46.745Z,99520.56
2023-04-25T00:59:14.630Z,99524.62
2023-04-25T01:01:44.002Z,99524.94
2023-04-25T01:04:12.551Z,99520.75
2023-04-25T01:06:39.737Z,99526.97
2023-04-25T01:09:06.876Z,99527.28
2023-04-25T01:11:33.856Z,99523.94
2023-04-25T01:14:01.753Z,99521.22
2023-04-25T01:16:29.225Z,99528.56
2023-04-25T01:18:56.544Z,99528.09
2023-04-25T01:21:23.596Z,99532.84
2023-04-25T01:23:51.602Z,99528.50
2023-04-25T01:26:18.993Z,99530.25
2023-04-25T01:28:46.586Z,99525.56
2023-04-25T01:31:14.200Z,99526.56
2023-04-25T01:33:41.317Z,99522.88
2023-04-25T01:36:08.476Z,99533.09
2023-04-25T01:38:35.478Z,99529.03
2023-04-25T01:41:02.702Z,99519.09
2023-04-25T01:43:29.987Z,99526.31
2023-04-25T01:45:58.317Z,99525.22
2023-04-25T01:48:25.256Z,99530.88
2023-04-25T01:50:52.372Z,99527.28
2023-04-25T01:53:19.303Z,99528.41
2023-04-25T01:55:46.229Z,99525.00
2023-04-25T01:58:14.219Z,99528.09
2023-04-25T02:00:42.080Z,99523.16
2023-04-25T02:03:09.992Z,99524.62
2023-04-25T02:05:40.773Z,99527.81
2023-04-25T02:08:09.486Z,99528.09
2023-04-25T02:10:36.947Z,99524.28
2023-04-25T02:13:05.669Z,99531.03
2023-04-25T02:15:33.187Z,99523.09
2023-04-25T02:18:01.581Z,99521.22
2023-04-25T02:20:33.505Z,99521.06
2023-04-25T02:23:00.908Z,99514.19
2023-04-25T02:25:28.000Z,99528.47
2023-04-25T02:27:55.163Z,99529.63
2023-04-25T02:30:22.234Z,99532.62
2023-04-25T02:32:49.187Z,99529.47
2023-04-25T02:35:16.191Z,99529.22
2023-04-25T02:37:43.741Z,99530.13
2023-04-25T02:40:11.235Z,99527.91
2023-04-25T02:42:38.172Z,99528.56
2023-04-25T02:45:05.700Z,99533.84
2023-04-25T02:47:32.851Z,99529.31
2023-04-25T02:49:59.877Z,99524.12
2023-04-25T02:52:27.002Z,99525.56
2023-04-25T02:54:53.908Z,99527.59
2023-04-25T02:57:20.860Z,99526.38
2023-04-25T02:59:47.839Z,99523.94
2023-04-25T03:02:14.947Z,99521.91
2023-04-25T03:04:42.142Z,99527.19
2023-04-25T03:07:09.163Z,99520.41
2023-04-25T03:09:36.295Z,99522.94
2023-04-25T03:12:03.339Z,99524.19
2023-04-25T03:14:30.234Z,99517.09
2023-04-25T03:16:57.509Z,99522.59
2023-04-25T03:19:24.544Z,99517.41
2023-04-25T03:21:51.551Z,99522.69
2023-04-25T03:24:18.525Z,99524.22
2023-04-25T03:26:45.533Z,99523.53
2023-04-25T03:29:13.065Z,99522.47
2023-04-25T03:31:40.013Z,99517.41
2023-04-25T03:34:07.044Z,99522.34
2023-04-25T03:36:34.056Z,99525.56
2023-04-25T03:39:00.981Z,99522.25
2023-04-25T03:41:28.050Z,99534.13
2023-04-25T03:43:55.007Z,99528.09
2023-04-25T03:46:21.999Z,99534.75
2023-04-25T03:48:49.078Z,99528.06
2023-04-25T03:51:16.043Z,99529.16
2023-04-25T03:53:43.061Z,99528.91
2023-04-25T03:56:10.857Z,99541.91
2023-04-25T03:58:37.771Z,99538.50
2023-04-25T04:01:08.815Z,99545.63
2023-04-25T04:03:37.477Z,99555.69
2023-04-25T04:06:06.880Z,99548.28
2023-04-25T04:08:34.839Z,99552.03
2023-04-25T04:11:01.959Z,99543.37
2023-04-25T04:13:29.900Z,99554.56
2023-04-25T04:15:56.879Z,99561.88
2023-04-25T04:18:23.817Z,99558.69
2023-04-25T04:20:51.060Z,99556.66
2023-04-25T04:23:18.038Z,99553.78
2023-04-25T04:25:45.181Z,99555.84
2023-04-25T04:28:12.350Z,99557.66
2023-04-25T04:30:40.359Z,99554.75
2023-04-25T04:33:08.674Z,99570.19
2023-04-25T04:35:35.959Z,99561.72
2023-04-25T04:38:02.905Z,99560.56
2023-04-25T04:40:31.676Z,99568.19
2023-04-25T04:42:58.681Z,99568.00
2023-04-25T04:45:25.718Z,99564.03
2023-04-25T04:47:52.697Z,99565.78
2023-04-25T04:50:20.041Z,99574.00
2023-04-25T04:52:47.019Z,99570.69
2023-04-25T04:55:13.994Z,99567.91
2023-04-25T04:57:40.935Z,99576.00
2023-04-25T05:00:12.056Z,99578.69
2023-04-25T05:02:40.113Z,99577.69
2023-04-25T05:05:07.939Z,99594.19
2023-04-25T05:07:35.396Z,99589.13
2023-04-25T05:10:02.421Z,99592.53
2023-04-25T05:12:29.335Z,99600.66
2023-04-25T05:14:56.269Z,99588.59
2023-04-25T05:17:23.320Z,99594.28
2023-04-25T05:19:50.344Z,99593.72
2023-04-25T05:22:17.486Z,99583.84
2023-04-25T05:24:44.448Z,99589.94
2023-04-25T05:27:11.415Z,99594.28
2023-04-25T05:29:38.565Z,99590.41
2023-04-25T05:32:06.814Z,99591.38
2023-04-25T05:34:33.895Z,99593.78
2023-04-25T05:37:01.406Z,99586.84
2023-04-25T05:39:28.548Z,99590.91
2023-04-25T05:41:55.592Z,99593.50
2023-04-25T05:44:22.681Z,99589.28
2023-04-25T05:46:50.015Z,99587.38
2023-04-25T05:49:19.410Z,99581.44
2023-04-25T05:51:47.321Z,99585.44
2023-04-25T05:54:14.286Z,99584.78
2023-04-25T05:56:41.271Z,99583.78
2023-04-25T05:59:08.316Z,99585.03
2023-04-25T06:01:35.384Z,99587.97
2023-04-25T06:04:03.053Z,99592.47
2023-04-25T06:06:31.397Z,99597.41
2023-04-25T06:08:58.357Z,99597.91
2023-04-25T06:11:25.328Z,99592.19
2023-04-25T06:13:52.580Z,99589.94
2023-04-25T06:16:20.004Z,99594.78
2023-04-25T06:18:47.046Z,99594.47
2023-04-25T06:21:17.530Z,99584.28
2023-04-25T06:23:44.959Z,99583.69
2023-04-25T06:26:11.933Z,99591.56
2023-04-25T06:28:38.940Z,99593.62
2023-04-25T06:31:06.018Z,99587.25
2023-04-25T06:33:33.030Z,99592.16
2023-04-25T06:35:59.954Z,99591.84
2023-04-25T06:38:26.883Z,99589.53
2023-04-25T06:40:53.940Z,99582.63
2023-04-25T06:43:25.518Z,99581.13
2023-04-25T06:45:55.257Z,99591.13
2023-04-25T06:48:22.010Z,99576.53
2023-04-25T06:50:50.064Z,99564.19
2023-04-25T06:53:17.152Z,99565.22
2023-04-25T06:55:44.117Z,99568.84
2023-04-25T06:58:11.063Z,99554.44
2023-04-25T07:00:38.067Z,99559.28
2023-04-25T07:03:05.218Z,99556.69
2023-04-25T07:05:32.234Z,99559.87
2023-04-25T07:07:59.740Z,99561.75
2023-04-25T07:10:27.020Z,99545.09
2023-04-25T07:12:54.555Z,99555.44
2023-04-25T07:15:21.454Z,99559.78
2023-04-25T07:17:48.452Z,99550.81
2023-04-25T07:20:15.448Z,99557.53
2023-04-25T07:22:42.493Z,99543.81
2023-04-25T07:25:16.321Z,99551.09
2023-04-25T07:27:44.002Z,99544.00
2023-04-25T07:30:11.556Z,99543.09
2023-04-25T07:32:38.519Z,99537.16
2023-04-25T07:35:05.942Z,99537.13
2023-04-25T07:37:33.178Z,99532.94
2023-04-25T07:40:00.174Z,99539.34
2023-04-25T07:42:27.187Z,99536.41
2023-04-25T07:44:54.368Z,99534.09
2023-04-25T07:47:21.601Z,99546.22
2023-04-25T07:49:48.842Z,99540.78
2023-04-25T07:52:15.890Z,99534.63
2023-04-25T07:54:43.115Z,99532.53
2023-04-25T07:57:10.074Z,99537.16
2023-04-25T07:59:37.117Z,99544.59
2023-04-25T08:02:04.085Z,99539.34
2023-04-25T08:04:31.322Z,99536.56
2023-04-25T08:06:58.346Z,99525.06
2023-04-25T08:09:26.061Z,99528.44
2023-04-25T08:11:53.079Z,99531.97
2023-04-25T08:14:20.112Z,99529.03
2023-04-25T08:16:47.110Z,99527.97
2023-04-25T08:19:14.876Z,99530.47
2023-04-25T08:21:43.577Z,99524.84
2023-04-25T08:24:10.547Z,99522.84
2023-04-25T08:26:38.790Z,99516.94
2023-04-25T08:29:06.732Z,99533.47
2023-04-25T08:31:33.822Z,99524.62
2023-04-25T08:34:00.926Z,99524.09
2023-04-25T08:36:38.470Z,99527.53
2023-04-25T08:39:08.320Z,99519.78
2023-04-25T08:41:37.730Z,99526.00
2023-04-25T08:44:06.716Z,99515.75
2023-04-25T08:46:34.436Z,99530.28
2023-04-25T08:49:04.697Z,99520.84
2023-04-25T08:51:34.836Z,99539.81
2023-04-25T08:54:27.888Z,99533.88
2023-04-25T08:56:59.346Z,99529.31
2023-04-25T09:01:53.300Z,99520.91
2023-04-25T09:04:21.691Z,99514.16
2023-04-25T09:06:49.538Z,99519.94
2023-04-25T09:09:17.110Z,99525.62
2023-04-25T09:11:44.146Z,99524.19
2023-04-25T09:14:16.434Z,99531.38
2023-04-25T09:17:02.536Z,99530.84
2023-04-25T09:19:42.269Z,99535.41
2023-04-25T09:22:10.034Z,99520.06
2023-04-25T09:24:45.487Z,99540.41
2023-04-25T09:27:14.303Z,99542.63
2023-04-25T09:29:43.230Z,99535.87
2023-04-25T09:32:17.359Z,99548.06
2023-04-25T09:34:56.108Z,99560.91
2023-04-25T09:37:33.885Z,99568.22
2023-04-25T09:40:06.997Z,99554.66
2023-04-25T09:42:35.865Z,99549.13
2023-04-25T09:45:07.358Z,99542.22
2023-04-25T09:47:39.295Z,99548.81
2023-04-25T09:50:18.522Z,99550.50
2023-04-25T09:52:45.520Z,99548.00
2023-04-25T09:55:12.669Z,99539.84
2023-04-25T09:57:41.128Z,99546.28
2023-04-25T10:00:13.702Z,99540.66
2023-04-25T10:02:44.382Z,99549.31
2023-04-25T10:05:11.997Z,99543.28
2023-04-25T10:07:40.081Z,99546.91
2023-04-25T10:10:07.581Z,99533.22
2023-04-25T10:12:35.311Z,99535.97
2023-04-25T10:15:05.458Z,99526.75
2023-04-25T10:17:34.117Z,99527.25
2023-04-25T10:20:05.645Z,99522.44
2023-04-25T10:22:37.209Z,99510.00
2023-04-25T10:25:05.445Z,99524.88
2023-04-25T10:27:33.243Z,99508.88
2023-04-25T10:30:19.211Z,99499.00
2023-04-25T10:32:48.518Z,99505.22
2023-04-25T10:35:20.992Z,99494.16
2023-04-25T10:38:06.085Z,99503.41
2023-04-25T10:40:34.377Z,99501.28
2023-04-25T10:43:32.546Z,99500.13
2023-04-25T10:46:03.557Z,99492.19
2023-04-25T10:48:32.186Z,99485.06
2023-04-25T10:54:28.372Z,99496.16
2023-04-25T10:57:01.872Z,99495.00
2023-04-25T10:59:32.494Z,99489.91
2023-04-25T11:01:59.818Z,99476.44
2023-04-25T11:04:32.606Z,99487.91
2023-04-25T11:07:07.798Z,99486.19
2023-04-25T11:09:37.366Z,99474.50
2023-04-25T11:12:04.589Z,99484.28
2023-04-25T11:14:31.727Z,99479.31
2023-04-25T11:17:00.872Z,99467.00
2023-04-25T11:19:29.387Z,99468.22
2023-04-25T11:22:01.448Z,99464.34
2023-04-25T11:24:32.972Z,99461.91
2023-04-25T11:27:01.122Z,99466.19
2023-04-25T11:29:28.616Z,99460.41
2023-04-25T11:31:59.687Z,99447.84
2023-04-25T11:34:27.334Z,99457.25
2023-04-25T11:36:57.312Z,99457.22
2023-04-25T11:39:28.042Z,99439.78
2023-04-25T11:41:56.584Z,99453.50
2023-04-25T11:44:23.880Z,99450.88
2023-04-25T11:46:58.244Z,99453.56
2023-04-25T11:49:26.190Z,99450.81
2023-04-25T11:51:53.224Z,99454.09
2023-04-25T11:54:20.192Z,99447.97
2023-04-25T11:56:47.507Z,99453.66
2023-04-25T11:59:14.658Z,99459.28
2023-04-25T12:02:00.892Z,99462.75
2023-04-25T12:04:28.031Z,99467.66
2023-04-25T12:06:56.645Z,99476.38
2023-04-25T12:09:36.468Z,99477.91
2023-04-25T12:12:04.566Z,99484.50
2023-04-25T12:14:33.653Z,99497.75
2023-04-25T12:17:02.820Z,99510.63
2023-04-25T12:19:37.678Z,99511.75
2023-04-25T12:22:19.623Z,99509.00
2023-04-25T12:24:46.854Z,99505.16
2023-04-25T12:27:20.297Z,99503.56
2023-04-25T12:29:55.973Z,99496.66
2023-04-25T12:32:23.517Z,99490.81
2023-04-25T12:34:51.438Z,99491.78
2023-04-25T12:37:18.397Z,99479.88
2023-04-25T12:39:45.380Z,99477.22
2023-04-25T12:42:15.018Z,99466.91
2023-04-25T12:44:42.481Z,99472.06
2023-04-25T12:47:11.095Z,99465.19
2023-04-25T12:49:38.551Z,99467.78
2023-04-25T12:52:05.584Z,99461.34
2023-04-25T12:54:33.254Z,99460.72
2023-04-25T12:57:00.640Z,99459.28
2023-04-25T12:59:27.943Z,99456.06
2023-04-25T13:01:55.179Z,99454.94
2023-04-25T13:04:22.763Z,99453.44
2023-04-25T13:06:50.177Z,99450.66
2023-04-25T13:09:17.053Z,99452.87
2023-04-25T13:11:44.081Z,99450.66
2023-04-25T13:14:11.084Z,99443.38
2023-04-25T13:16:38.127Z,99444.59
2023-04-25T13:19:05.224Z,99441.25
2023-04-25T13:21:33.682Z,99442.28
2023-04-25T13:24:00.850Z,99434.47
2023-04-25T13:26:27.924Z,99425.50
2023-04-25T13:28:54.938Z,99415.25
2023-04-25T13:31:23.256Z,99416.69
2023-04-25T13:33:50.440Z,99414.31
2023-04-25T13:36:17.612Z,99416.34
2023-04-25T13:38:46.187Z,99422.78
2023-04-25T13:41:18.847Z,99413.41
2023-04-25T13:43:48.823Z,99414.13
2023-04-25T13:46:35.161Z,99408.84
2023-04-25T13:49:11.614Z,99411.56
2023-04-25T13:51:39.604Z,99399.91
2023-04-25T13:54:12.646Z,99401.69
2023-04-25T13:56:43.460Z,99409.97
2023-04-25T13:59:11.346Z,99414.56
2023-04-25T14:01:38.413Z,99417.62
2023-04-25T14:04:05.837Z,99422.03
2023-04-25T14:06:34.308Z,99415.91
2023-04-25T14:09:05.883Z,99419.22
2023-04-25T14:11:32.852Z,99414.37
2023-04-25T14:13:59.894Z,99416.38
2023-04-25T14:16:28.255Z,99424.44
2023-04-25T14:18:55.878Z,99418.00
2023-04-25T14:21:22.988Z,99420.25
2023-04-25T14:23:50.316Z,99431.84
2023-04-25T14:26:17.649Z,99422.81
2023-04-25T14:28:44.747Z,99435.88
2023-04-25T14:31:11.947Z,99443.38
2023-04-25T14:33:42.961Z,99434.97
2023-04-25T14:36:10.109Z,99431.53
2023-04-25T14:38:37.242Z,99433.28
2023-04-25T14:41:04.976Z,99426.06
2023-04-25T14:43:32.028Z,99436.16
2023-04-25T14:45:59.026Z,99427.31
2023-04-25T14:48:26.149Z,99429.16
2023-04-25T14:50:53.208Z,99417.38
2023-04-25T14:53:20.153Z,99413.75
2023-04-25T14:55:47.112Z,99420.78
2023-04-25T14:58:14.140Z,99420.00
2023-04-25T15:00:41.789Z,99408.38
2023-04-25T15:03:08.947Z,99424.66
2023-04-25T15:05:36.487Z,99420.38
2023-04-25T15:08:03.833Z,99425.88
2023-04-25T15:10:30.997Z,99424.72
2023-04-25T15:12:58.095Z,99431.50
2023-04-25T15:15:26.866Z,99422.41
2023-04-25T15:17:59.366Z,99427.31
2023-04-25T15:20:26.750Z,99428.53
2023-04-25T15:22:53.861Z,99441.00
2023-04-25T15:25:20.872Z,99446.28
2023-04-25T15:27:49.786Z,99454.66
2023-04-25T15:30:18.089Z,99455.16
2023-04-25T15:32:47.140Z,99464.69
2023-04-25T15:35:15.901Z,99467.69
2023-04-25T15:37:42.869Z,99468.09
2023-04-25T15:40:13.819Z,99478.66
2023-04-25T15:42:54.304Z,99470.53
2023-04-25T15:45:26.318Z,99473.97
2023-04-25T15:47:55.428Z,99470.34
2023-04-25T15:50:23.146Z,99471.25
2023-04-25T15:52:51.472Z,99470.91
2023-04-25T15:55:21.202Z,99465.16
2023-04-25T15:57:49.898Z,99453.56
2023-04-25T16:00:21.412Z,99460.00
2023-04-25T16:02:48.943Z,99466.13
2023-04-25T16:05:16.701Z,99466.63
2023-04-25T16:07:45.090Z,99461.41
2023-04-25T16:10:13.065Z,99466.47
2023-04-25T16:12:40.950Z,99465.78
2023-04-25T16:15:08.421Z,99451.50
2023-04-25T16:17:35.535Z,99460.84
2023-04-25T16:20:06.437Z,99454.88
2023-04-25T16:22:33.467Z,99457.34
2023-04-25T16:25:00.533Z,99456.88
2023-04-25T16:27:27.512Z,99456.72
2023-04-25T16:29:54.429Z,99459.78
2023-04-25T16:32:21.435Z,99454.84
2023-04-25T16:34:48.418Z,99452.69
2023-04-25T16:37:15.398Z,99458.34
2023-04-25T16:39:42.355Z,99455.44
2023-04-25T16:42:09.378Z,99452.41
2023-04-25T16:44:36.758Z,99453.47
2023-04-25T16:47:05.236Z,99456.38
2023-04-25T16:49:32.964Z,99467.00
2023-04-25T16:51:59.965Z,99460.03
2023-04-25T16:54:26.945Z,99467.56
2023-04-25T16:56:53.929Z,99458.53
2023-04-25T16:59:21.049Z,99463.50
2023-04-25T17:01:48.066Z,99465.22
2023-04-25T17:04:15.127Z,99474.56
2023-04-25T17:06:42.327Z,99471.28
2023-04-25T17:09:09.437Z,99481.00
2023-04-25T17:11:37.060Z,99489.22
2023-04-25T17:14:05.026Z,99488.16
2023-04-25T17:16:39.677Z,99492.13
2023-04-25T17:19:07.807Z,99493.38
2023-04-25T17:21:34.737Z,99489.81
2023-04-25T17:24:01.833Z,99489.22
2023-04-25T17:26:28.877Z,99495.25
2023-04-25T17:28:55.801Z,99502.66
2023-04-25T17:31:24.172Z,99495.72
2023-04-25T17:33:51.225Z,99502.12
2023-04-25T17:36:18.684Z,99511.19
2023-04-25T17:38:45.904Z,99516.97
2023-04-25T17:41:15.187Z,99526.59
2023-04-25T17:43:42.230Z,99524.41
2023-04-25T17:46:09.222Z,99532.84
2023-04-25T17:48:36.336Z,99531.19
2023-04-25T17:51:03.537Z,99528.00
2023-04-25T17:53:31.158Z,99526.69
2023-04-25T17:55:58.184Z,99525.34
2023-04-25T17:58:25.384Z,99536.03
2023-04-25T18:00:52.744Z,99540.41
2023-04-25T18:03:19.778Z,99538.91
2023-04-25T18:05:46.781Z,99548.56
2023-04-25T18:08:13.979Z,99550.16
2023-04-25T18:10:41.456Z,99556.16
2023-04-25T18:13:09.423Z,99577.50
2023-04-25T18:15:37.079Z,99575.44
2023-04-25T18:18:09.956Z,99574.91
2023-04-25T18:20:37.397Z,99580.66
2023-04-25T18:23:04.296Z,99595.09
2023-04-25T18:25:31.238Z,99589.13
2023-04-25T18:27:59.881Z,99591.06
2023-04-25T18:30:27.090Z,99596.63
2023-04-25T18:32:55.387Z,99599.63
2023-04-25T18:35:22.809Z,99607.28
2023-04-25T18:37:49.998Z,99611.91
2023-04-25T18:40:17.004Z,99618.00
2023-04-25T18:42:44.189Z,99630.91
2023-04-25T18:45:11.636Z,99631.91
2023-04-25T18:47:38.635Z,99643.53
2023-04-25T18:50:06.983Z,99652.66
2023-04-25T18:52:34.018Z,99647.16
2023-04-25T18:55:00.932Z,99653.38
2023-04-25T18:57:27.951Z,99654.06
2023-04-25T18:59:55.152Z,99657.06
2023-04-25T19:02:23.047Z,99669.28
2023-04-25T19:04:50.280Z,99668.78
2023-04-25T19:07:17.472Z,99675.97
2023-04-25T19:09:44.457Z,99665.47
2023-04-25T19:12:11.561Z,99683.63
2023-04-25T19:14:38.554Z,99685.06
2023-04-25T19:17:06.080Z,99685.22
2023-04-25T19:19:33.104Z,99690.97
2023-04-25T19:22:00.084Z,99688.47
2023-04-25T19:24:27.413Z,99700.22
2023-04-25T19:26:54.424Z,99707.19
2023-04-25T19:29:21.591Z,99715.47
2023-04-25T19:31:48.523Z,99712.53
2023-04-25T19:34:15.506Z,99719.75
2023-04-25T19:36:42.870Z,99719.91
2023-04-25T19:39:11.129Z,99730.53
2023-04-25T19:41:39.065Z,99717.44
2023-04-25T19:44:08.864Z,99724.31
2023-04-25T19:46:37.360Z,99730.66
2023-04-25T19:49:08.553Z,99723.44
2023-04-25T19:51:36.766Z,99726.37
2023-04-25T19:54:04.569Z,99725.16
2023-04-25T19:56:31.574Z,99726.03
2023-04-25T19:58:58.724Z,99733.69
2023-04-25T20:01:26.452Z,99728.66
2023-04-25T20:03:53.814Z,99738.47
2023-04-25T20:06:21.097Z,99742.59
2023-04-25T20:08:48.178Z,99740.63
2023-04-25T20:11:15.359Z,99755.16
2023-04-25T20:13:42.352Z,99753.25
2023-04-25T20:16:09.500Z,99761.00
2023-04-25T20:18:36.526Z,99765.13
2023-04-25T20:21:03.610Z,99762.41
2023-04-25T20:23:30.618Z,99756.63
2023-04-25T20:25:57.806Z,99759.41
2023-04-25T20:28:24.765Z,99753.81
2023-04-25T20:30:51.937Z,99758.22
2023-04-25T20:33:18.990Z,99759.63
2023-04-25T20:35:46.713Z,99764.41
2023-04-25T20:38:13.752Z,99765.06
2023-04-25T20:40:40.782Z,99766.66
2023-04-25T20:43:07.807Z,99772.31
2023-04-25T20:45:34.834Z,99781.75
2023-04-25T20:48:03.008Z,99782.97
2023-04-25T20:50:30.041Z,99789.47
2023-04-25T20:52:57.592Z,99796.34
2023-04-25T20:55:24.826Z,99791.00
2023-04-25T20:57:52.290Z,99794.87
2023-04-25T21:00:26.875Z,99802.59
2023-04-25T21:02:54.703Z,99802.13
2023-04-25T21:05:22.675Z,99805.94
2023-04-25T21:07:52.522Z,99805.16
2023-04-25T21:10:19.344Z,99802.06
2023-04-25T21:12:50.193Z,99821.25
2023-04-25T21:15:20.473Z,99809.13
2023-04-25T21:17:48.922Z,99816.34
2023-04-25T21:20:18.216Z,99807.22
2023-04-25T21:22:54.239Z,99816.88
2023-04-25T21:25:31.924Z,99815.66
2023-04-25T21:27:59.886Z,99817.66
2023-04-25T21:30:27.275Z,99821.41
2023-04-25T21:32:54.631Z,99824.75
2023-04-25T21:35:22.762Z,99820.72
2023-04-25T21:37:51.741Z,99828.16
2023-04-25T21:40:19.193Z,99828.84
2023-04-25T21:42:53.816Z,99830.56
2023-04-25T21:45:21.330Z,99834.13
2023-04-25T21:47:48.799Z,99833.13
2023-04-25T21:50:16.531Z,99843.66
2023-04-25T21:52:43.713Z,99834.78
2023-04-25T21:55:11.760Z,99840.09
2023-04-25T21:57:38.731Z,99852.59
2023-04-25T22:00:20.293Z,99847.53
2023-04-25T22:02:48.177Z,99846.03
2023-04-25T22:05:15.631Z,99841.28
2023-04-25T22:07:42.568Z,99840.94
2023-04-25T22:10:10.005Z,99852.38
2023-04-25T22:12:37.660Z,99853.59
2023-04-25T22:15:04.961Z,99858.88
2023-04-25T22:17:33.481Z,99859.84
2023-04-25T22:20:01.734Z,99866.16
2023-04-25T22:22:28.865Z,99873.28
2023-04-25T22:24:56.572Z,99875.19
2023-04-25T22:27:23.902Z,99870.31
2023-04-25T22:29:50.772Z,99877.16
2023-04-25T22:32:17.726Z,99876.25
2023-04-25T22:34:44.830Z,99875.38
2023-04-25T22:37:11.812Z,99873.56
2023-04-25T22:39:38.713Z,99876.72
2023-04-25T22:42:06.160Z,99881.00
2023-04-25T22:44:33.964Z,99883.75
2023-04-25T22:47:01.734Z,99882.75
2023-04-25T22:49:29.098Z,99886.22
2023-04-25T22:51:57.068Z,99884.44
2023-04-25T22:54:24.325Z,99887.03
2023-04-25T22:56:51.381Z,99896.91
2023-04-25T22:59:20.873Z,99896.84
2023-04-25T23:01:50.245Z,99894.69
2023-04-25T23:04:19.271Z,99900.63
2023-04-25T23:06:46.651Z,99901.81
2023-04-25T23:09:14.263Z,99901.84
2023-04-25T23:11:44.154Z,99907.66
2023-04-25T23:14:10.999Z,99902.28
2023-04-25T23:16:37.961Z,99906.66
2023-04-25T23:19:04.879Z,99911.22
2023-04-25T23:21:31.763Z,99924.19
2023-04-25T23:23:58.836Z,99916.91
2023-04-25T23:26:25.792Z,99925.06
2023-04-25T23:28:52.908Z,99923.72
2023-04-25T23:31:20.234Z,99928.91
2023-04-25T23:33:47.153Z,99923.97
2023-04-25T23:36:21.609Z,99930.75
2023-04-25T23:38:49.028Z,99930.78
2023-04-25T23:41:16.283Z,99929.22
2023-04-25T23:43:43.347Z,99926.22
2023-04-25T23:46:10.403Z,99938.56
2023-04-25T23:48:37.318Z,99938.91
2023-04-25T23:51:04.254Z,99940.84
2023-04-25T23:53:31.234Z,99939.37
2023-04-25T23:55:58.221Z,99933.97
2023-04-25T23:58:25.153Z,99937.69
